Time;durP1;ratioP1;P1;durP2;ratioP2;P2;SDS_P1;SDS_P2;PMS_P1;PMS_P2;Temp;Humidity;BMP_temperature;BMP_pressure;BME280_temperature;BME280_humidity;BME280_pressure;Samples;Min_cycle;Max_cycle;Signal;HPM_P1;HPM_P2
2024/02/19 00:00:12;;;;;;;1.50;1.45;;;;;;;;;;4901621;29;20047;-73
2024/02/19 00:02:39;;;;;;;1.58;1.58;;;;;;;;;;4937278;29;20401;-73
2024/02/19 00:05:06;;;;;;;2.35;2.15;;;;;;;;;;4954454;29;20086;-72
2024/02/19 00:07:32;;;;;;;1.90;1.90;;;;;;;;;;4917443;29;20053;-73
2024/02/19 00:09:59;;;;;;;2.20;2.10;;;;;;;;;;4948399;29;20059;-72
2024/02/19 00:12:25;;;;;;;2.10;2.00;;;;;;;;;;4949549;29;20656;-73
2024/02/19 00:14:51;;;;;;;2.20;2.10;;;;;;;;;;4953270;28;20606;-73
2024/02/19 00:17:20;;;;;;;2.30;2.20;;;;;;;;;;4952199;28;20046;-72
2024/02/19 00:19:47;;;;;;;1.90;1.80;;;;;;;;;;4951871;29;20506;-73
2024/02/19 00:22:13;;;;;;;1.58;1.58;;;;;;;;;;4934144;29;20674;-72
2024/02/19 00:24:39;;;;;;;2.22;2.10;;;;;;;;;;4952334;29;20185;-72
2024/02/19 00:27:05;;;;;;;1.98;1.88;;;;;;;;;;4920649;29;20066;-72
2024/02/19 00:29:31;;;;;;;2.33;2.13;;;;;;;;;;4933283;29;20062;-73
2024/02/19 00:31:57;;;;;;;2.78;2.58;;;;;;;;;;4927584;29;20031;-73
2024/02/19 00:34:23;;;;;;;2.38;2.13;;;;;;;;;;4934884;29;20491;-73
2024/02/19 00:36:50;;;;;;;2.13;2.03;;;;;;;;;;4934984;29;20027;-72
2024/02/19 00:39:16;;;;;;;2.22;2.00;;;;;;;;;;4934787;29;20106;-72
2024/02/19 00:41:42;;;;;;;1.77;1.73;;;;;;;;;;4933780;29;20039;-72
2024/02/19 00:44:08;;;;;;;1.98;1.88;;;;;;;;;;4935253;29;20042;-72
2024/02/19 00:46:34;;;;;;;2.20;2.10;;;;;;;;;;4936101;29;20035;-73
2024/02/19 00:49:00;;;;;;;1.70;1.70;;;;;;;;;;4935430;29;20043;-72
2024/02/19 00:51:26;;;;;;;1.67;1.65;;;;;;;;;;4936300;29;20113;-74
2024/02/19 00:53:52;;;;;;;2.05;1.95;;;;;;;;;;4921720;29;20027;-73
2024/02/19 00:56:18;;;;;;;2.15;1.83;;;;;;;;;;4920800;29;20499;-74
2024/02/19 00:58:44;;;;;;;1.80;1.80;;;;;;;;;;4934106;29;20031;-75
2024/02/19 01:01:10;;;;;;;1.77;1.77;;;;;;;;;;4933067;29;20550;-72
2024/02/19 01:03:35;;;;;;;1.73;1.63;;;;;;;;;;4951272;29;20444;-74
2024/02/19 01:06:01;;;;;;;1.80;1.70;;;;;;;;;;4918663;29;20028;-74
2024/02/19 01:08:27;;;;;;;1.80;1.70;;;;;;;;;;4951944;29;20118;-74
2024/02/19 01:10:53;;;;;;;1.73;1.73;;;;;;;;;;4950177;29;20086;-74
2024/02/19 01:13:19;;;;;;;2.28;2.08;;;;;;;;;;4951942;28;20103;-74
2024/02/19 01:15:45;;;;;;;1.65;1.65;;;;;;;;;;4934684;29;20114;-74
2024/02/19 01:18:10;;;;;;;1.70;1.65;;;;;;;;;;4934900;29;20279;-74
2024/02/19 01:20:36;;;;;;;1.77;1.77;;;;;;;;;;4950904;29;20039;-74
2024/02/19 01:23:03;;;;;;;1.75;1.65;;;;;;;;;;4952420;29;20062;-75
2024/02/19 01:25:28;;;;;;;2.00;1.90;;;;;;;;;;4918590;29;20031;-74
2024/02/19 01:27:54;;;;;;;1.85;1.75;;;;;;;;;;4951289;29;20035;-74
2024/02/19 01:30:20;;;;;;;1.88;1.83;;;;;;;;;;4932939;29;20078;-74
2024/02/19 01:32:46;;;;;;;2.15;2.05;;;;;;;;;;4934023;29;20435;-73
2024/02/19 01:35:12;;;;;;;2.05;1.95;;;;;;;;;;4934855;29;20047;-74
2024/02/19 01:37:38;;;;;;;2.30;2.10;;;;;;;;;;4950989;29;20113;-74
2024/02/19 01:40:09;;;;;;;1.98;1.80;;;;;;;;;;4950106;29;20039;-75
2024/02/19 01:42:36;;;;;;;1.63;1.63;;;;;;;;;;4953856;29;20062;-74
2024/02/19 01:45:02;;;;;;;1.80;1.80;;;;;;;;;;4950726;28;20060;-74
2024/02/19 01:47:30;;;;;;;1.95;1.85;;;;;;;;;;4952619;29;20146;-74
2024/02/19 01:49:57;;;;;;;2.10;2.00;;;;;;;;;;4933883;29;20043;-74
2024/02/19 01:52:24;;;;;;;1.67;1.58;;;;;;;;;;4951541;29;20035;-74
2024/02/19 01:54:50;;;;;;;1.65;1.55;;;;;;;;;;4933960;29;20587;-74
2024/02/19 01:57:16;;;;;;;1.63;1.63;;;;;;;;;;4933392;29;20129;-73
2024/02/19 01:59:42;;;;;;;1.90;1.80;;;;;;;;;;4948924;29;20047;-74
2024/02/19 02:02:08;;;;;;;1.80;1.80;;;;;;;;;;4950414;29;20042;-74
2024/02/19 02:04:35;;;;;;;1.70;1.70;;;;;;;;;;4949733;28;20045;-73
2024/02/19 02:07:01;;;;;;;1.80;1.70;;;;;;;;;;4917877;29;20031;-73
2024/02/19 02:09:27;;;;;;;1.60;1.60;;;;;;;;;;4948804;29;20047;-73
2024/02/19 02:11:53;;;;;;;1.80;1.70;;;;;;;;;;4917427;29;20047;-73
2024/02/19 02:14:19;;;;;;;1.63;1.63;;;;;;;;;;4917512;29;20027;-73
2024/02/19 02:16:45;;;;;;;1.77;1.67;;;;;;;;;;4932782;29;20598;-73
2024/02/19 02:19:12;;;;;;;1.55;1.55;;;;;;;;;;4951573;29;20047;-74
2024/02/19 02:21:41;;;;;;;1.88;1.77;;;;;;;;;;4950477;29;20054;-73
2024/02/19 02:24:07;;;;;;;1.80;1.70;;;;;;;;;;4932207;29;20031;-73
2024/02/19 02:26:39;;;;;;;2.15;2.05;;;;;;;;;;4917020;29;20059;-73
2024/02/19 02:29:06;;;;;;;1.40;1.30;;;;;;;;;;4915641;29;20031;-73
2024/02/19 02:31:32;;;;;;;1.88;1.77;;;;;;;;;;4949121;28;20055;-73
2024/02/19 02:33:58;;;;;;;2.03;1.90;;;;;;;;;;4917119;29;20033;-73
2024/02/19 02:36:24;;;;;;;1.50;1.50;;;;;;;;;;4932804;29;20510;-74
2024/02/19 02:38:50;;;;;;;1.60;1.50;;;;;;;;;;4932175;29;20039;-74
2024/02/19 02:41:16;;;;;;;1.70;1.60;;;;;;;;;;4915929;29;20032;-75
2024/02/19 02:43:42;;;;;;;1.90;1.80;;;;;;;;;;4949561;28;20057;-74
2024/02/19 02:46:08;;;;;;;2.13;2.00;;;;;;;;;;4932733;29;20039;-74
2024/02/19 02:48:34;;;;;;;2.58;1.90;;;;;;;;;;4949366;29;20419;-73
2024/02/19 02:51:00;;;;;;;4.30;1.95;;;;;;;;;;4949546;29;20512;-74
2024/02/19 02:53:26;;;;;;;1.83;1.73;;;;;;;;;;4931914;29;20381;-73
2024/02/19 02:55:52;;;;;;;5.53;2.75;;;;;;;;;;4931323;29;20495;-73
2024/02/19 02:58:18;;;;;;;12.88;2.40;;;;;;;;;;4948831;28;20031;-73
2024/02/19 03:00:44;;;;;;;2.17;2.08;;;;;;;;;;4930798;29;20043;-73
2024/02/19 03:03:10;;;;;;;1.55;1.45;;;;;;;;;;4950309;29;20054;-74
2024/02/19 03:05:37;;;;;;;2.92;2.47;;;;;;;;;;4930484;29;20571;-73
2024/02/19 03:08:03;;;;;;;2.22;2.03;;;;;;;;;;4946926;29;20447;-73
2024/02/19 03:10:29;;;;;;;1.42;1.42;;;;;;;;;;4947731;29;20060;-74
2024/02/19 03:12:55;;;;;;;1.65;1.55;;;;;;;;;;4949216;29;20043;-74
2024/02/19 03:15:21;;;;;;;1.10;1.10;;;;;;;;;;4949152;29;20707;-74
2024/02/19 03:17:47;;;;;;;1.30;1.30;;;;;;;;;;4949008;29;20042;-74
2024/02/19 03:20:13;;;;;;;1.38;1.38;;;;;;;;;;4947038;29;20043;-74
2024/02/19 03:22:41;;;;;;;1.17;1.17;;;;;;;;;;4931403;29;20046;-73
2024/02/19 03:25:07;;;;;;;1.80;1.70;;;;;;;;;;4924713;29;20043;-75
2024/02/19 03:27:33;;;;;;;1.80;1.70;;;;;;;;;;4948565;29;20050;-74
2024/02/19 03:29:59;;;;;;;1.73;1.67;;;;;;;;;;4948068;29;20059;-74
2024/02/19 03:32:25;;;;;;;2.10;2.00;;;;;;;;;;4948973;29;20127;-74
2024/02/19 03:34:51;;;;;;;1.65;1.65;;;;;;;;;;4940696;29;20443;-74
2024/02/19 03:37:17;;;;;;;2.05;1.65;;;;;;;;;;4917288;29;20043;-74
2024/02/19 03:39:44;;;;;;;1.80;1.80;;;;;;;;;;4913390;29;20051;-74
2024/02/19 03:42:10;;;;;;;1.40;1.40;;;;;;;;;;4932471;29;20039;-73
2024/02/19 03:44:36;;;;;;;1.83;1.73;;;;;;;;;;4948958;28;20039;-73
2024/02/19 03:47:02;;;;;;;1.60;1.60;;;;;;;;;;4949961;29;20035;-73
2024/02/19 03:49:28;;;;;;;2.20;2.10;;;;;;;;;;4951440;28;20150;-74
2024/02/19 03:51:54;;;;;;;1.70;1.70;;;;;;;;;;4934713;29;20518;-73
2024/02/19 03:54:20;;;;;;;1.67;1.67;;;;;;;;;;4935978;29;20043;-74
2024/02/19 03:56:47;;;;;;;2.10;2.00;;;;;;;;;;4935036;29;20035;-73
2024/02/19 03:59:13;;;;;;;2.25;1.73;;;;;;;;;;4952539;29;20492;-73
2024/02/19 04:01:39;;;;;;;1.80;1.70;;;;;;;;;;4951972;29;20142;-73
2024/02/19 04:04:05;;;;;;;1.75;1.75;;;;;;;;;;4952724;29;20032;-73
2024/02/19 04:06:31;;;;;;;1.70;1.60;;;;;;;;;;4934897;29;20063;-72
2024/02/19 04:08:56;;;;;;;1.90;1.80;;;;;;;;;;4933956;29;20031;-73
2024/02/19 04:11:22;;;;;;;1.50;1.50;;;;;;;;;;4934373;29;20074;-73
2024/02/19 04:13:48;;;;;;;1.80;1.70;;;;;;;;;;4933061;29;20113;-73
2024/02/19 04:16:14;;;;;;;1.38;1.38;;;;;;;;;;4933081;29;20063;-73
2024/02/19 04:18:40;;;;;;;2.08;1.85;;;;;;;;;;4931559;29;20126;-73
2024/02/19 04:21:06;;;;;;;2.10;2.00;;;;;;;;;;4930888;29;20047;-73
2024/02/19 04:23:32;;;;;;;1.77;1.50;;;;;;;;;;4931763;29;20535;-72
2024/02/19 04:25:58;;;;;;;1.70;1.70;;;;;;;;;;4933930;29;20055;-73
2024/02/19 04:28:24;;;;;;;2.00;1.90;;;;;;;;;;4930511;29;20039;-73
2024/02/19 04:30:50;;;;;;;3.47;2.00;;;;;;;;;;4930878;29;20142;-73
2024/02/19 04:33:15;;;;;;;2.13;2.00;;;;;;;;;;4933246;29;20051;-73
2024/02/19 04:35:41;;;;;;;1.92;1.83;;;;;;;;;;4930979;29;20492;-73
2024/02/19 04:38:07;;;;;;;1.85;1.75;;;;;;;;;;4930756;29;20039;-73
2024/02/19 04:40:33;;;;;;;3.58;2.40;;;;;;;;;;4930317;29;20084;-73
2024/02/19 04:42:59;;;;;;;2.47;2.28;;;;;;;;;;4933816;29;20035;-73
2024/02/19 04:45:25;;;;;;;2.53;2.33;;;;;;;;;;4932619;29;20039;-74
2024/02/19 04:47:51;;;;;;;2.03;1.92;;;;;;;;;;4931904;29;20043;-74
2024/02/19 04:50:16;;;;;;;2.50;1.80;;;;;;;;;;4930632;29;20432;-74
2024/02/19 04:52:42;;;;;;;2.50;2.40;;;;;;;;;;4932076;29;20500;-73
2024/02/19 04:55:09;;;;;;;2.28;2.13;;;;;;;;;;4933685;29;20949;-72
2024/02/19 04:57:34;;;;;;;3.03;2.22;;;;;;;;;;4931728;29;20076;-74
2024/02/19 05:00:20;;;;;;;6.65;2.20;;;;;;;;;;4930132;29;20040;-73
2024/02/19 05:02:46;;;;;;;1.92;1.83;;;;;;;;;;4931905;29;20115;-73
2024/02/19 05:05:12;;;;;;;1.48;1.40;;;;;;;;;;4932200;29;20167;-73
2024/02/19 05:07:38;;;;;;;2.03;1.88;;;;;;;;;;4931178;29;20032;-74
2024/02/19 05:10:07;;;;;;;1.90;1.80;;;;;;;;;;4936041;29;20122;-74
2024/02/19 05:12:32;;;;;;;3.30;1.90;;;;;;;;;;4951358;29;20090;-74
2024/02/19 05:14:58;;;;;;;1.75;1.65;;;;;;;;;;4934461;29;20070;-73
2024/02/19 05:17:24;;;;;;;6.43;3.35;;;;;;;;;;4918703;28;20511;-73
2024/02/19 05:19:50;;;;;;;2.00;1.88;;;;;;;;;;4948169;29;20422;-73
2024/02/19 05:22:16;;;;;;;3.25;1.92;;;;;;;;;;4913882;29;20085;-73
2024/02/19 05:24:45;;;;;;;2.33;2.13;;;;;;;;;;4950787;29;20491;-73
2024/02/19 05:27:10;;;;;;;2.60;2.40;;;;;;;;;;4950834;29;20527;-74
2024/02/19 05:29:36;;;;;;;2.78;2.47;;;;;;;;;;4949550;29;20047;-73
2024/02/19 05:32:02;;;;;;;2.00;1.90;;;;;;;;;;4933964;29;20068;-74
2024/02/19 05:34:29;;;;;;;2.13;2.00;;;;;;;;;;4951324;28;20035;-74
2024/02/19 05:36:56;;;;;;;2.95;2.75;;;;;;;;;;4950171;29;20086;-74
2024/02/19 05:39:22;;;;;;;2.92;2.58;;;;;;;;;;4932891;29;20042;-75
2024/02/19 05:41:47;;;;;;;3.10;2.90;;;;;;;;;;4918372;29;20039;-74
2024/02/19 05:44:13;;;;;;;2.78;2.45;;;;;;;;;;4950795;29;20507;-74
2024/02/19 05:46:39;;;;;;;2.33;2.20;;;;;;;;;;4933515;29;20129;-74
2024/02/19 05:49:05;;;;;;;3.00;2.70;;;;;;;;;;4916962;29;20038;-75
2024/02/19 05:51:31;;;;;;;5.85;2.45;;;;;;;;;;4950878;29;20066;-74
2024/02/19 05:53:57;;;;;;;2.40;2.22;;;;;;;;;;4950240;29;20492;-74
2024/02/19 05:56:24;;;;;;;2.13;2.03;;;;;;;;;;4950911;29;20039;-74
2024/02/19 05:58:51;;;;;;;2.35;2.20;;;;;;;;;;4932286;29;20039;-74
2024/02/19 06:01:16;;;;;;;2.92;2.45;;;;;;;;;;4933540;29;20039;-74
2024/02/19 06:03:42;;;;;;;2.40;2.28;;;;;;;;;;4932712;29;20050;-74
2024/02/19 06:06:08;;;;;;;3.90;2.85;;;;;;;;;;4951605;29;20093;-74
2024/02/19 06:08:34;;;;;;;2.22;1.98;;;;;;;;;;4949835;28;20047;-74
2024/02/19 06:11:02;;;;;;;2.00;1.90;;;;;;;;;;4948931;28;20126;-74
2024/02/19 06:13:28;;;;;;;2.15;2.05;;;;;;;;;;4932760;29;20418;-73
2024/02/19 06:15:54;;;;;;;2.42;2.30;;;;;;;;;;4948029;29;20621;-74
2024/02/19 06:18:20;;;;;;;2.63;2.42;;;;;;;;;;4947931;29;20058;-73
2024/02/19 06:20:47;;;;;;;4.90;4.50;;;;;;;;;;4948875;29;20415;-73
2024/02/19 06:23:13;;;;;;;2.70;2.60;;;;;;;;;;4931078;29;20035;-75
2024/02/19 06:25:39;;;;;;;2.67;2.47;;;;;;;;;;4931394;29;20035;-74
2024/02/19 06:28:06;;;;;;;6.28;2.55;;;;;;;;;;4943973;29;20043;-74
2024/02/19 06:30:33;;;;;;;5.30;2.40;;;;;;;;;;4944937;29;20063;-73
2024/02/19 06:32:59;;;;;;;2.42;2.33;;;;;;;;;;4934601;29;20043;-74
2024/02/19 06:35:25;;;;;;;2.60;2.50;;;;;;;;;;4949261;29;20023;-73
2024/02/19 06:37:51;;;;;;;2.60;2.40;;;;;;;;;;4916021;29;20454;-73
2024/02/19 06:40:16;;;;;;;1.77;1.77;;;;;;;;;;4928454;29;20113;-71
2024/02/19 06:42:43;;;;;;;4.53;2.25;;;;;;;;;;4929419;29;20130;-71
2024/02/19 06:45:10;;;;;;;3.55;2.70;;;;;;;;;;4932937;29;20122;-70
2024/02/19 06:47:36;;;;;;;2.75;2.50;;;;;;;;;;4947702;29;20155;-72
2024/02/19 06:50:02;;;;;;;1.95;1.85;;;;;;;;;;4928360;29;20244;-71
2024/02/19 06:52:30;;;;;;;5.43;2.90;;;;;;;;;;4946871;28;20042;-72
2024/02/19 06:54:56;;;;;;;3.65;2.95;;;;;;;;;;4948038;29;20035;-71
2024/02/19 06:57:22;;;;;;;2.83;2.63;;;;;;;;;;4930404;29;20432;-71
2024/02/19 06:59:48;;;;;;;5.47;3.05;;;;;;;;;;4929686;29;20408;-72
2024/02/19 07:02:14;;;;;;;3.08;2.75;;;;;;;;;;4948422;29;20078;-72
2024/02/19 07:04:40;;;;;;;3.15;2.95;;;;;;;;;;4931494;29;20035;-71
2024/02/19 07:07:09;;;;;;;6.03;3.08;;;;;;;;;;4947732;29;20035;-70
2024/02/19 07:09:35;;;;;;;2.40;2.20;;;;;;;;;;4945532;29;20621;-70
2024/02/19 07:12:01;;;;;;;2.08;1.98;;;;;;;;;;4948787;29;20121;-70
2024/02/19 07:14:27;;;;;;;1.58;1.48;;;;;;;;;;4948628;29;20125;-71
2024/02/19 07:16:53;;;;;;;2.10;2.00;;;;;;;;;;4946944;29;20086;-70
2024/02/19 07:19:19;;;;;;;1.85;1.75;;;;;;;;;;4940883;28;20035;-71
2024/02/19 07:21:44;;;;;;;1.70;1.70;;;;;;;;;;4950484;28;20491;-70
2024/02/19 07:24:10;;;;;;;3.83;2.45;;;;;;;;;;4951100;29;20066;-69
2024/02/19 07:26:36;;;;;;;2.47;2.38;;;;;;;;;;4949161;28;20106;-71
2024/02/19 07:29:02;;;;;;;2.30;2.20;;;;;;;;;;4947239;29;20094;-70
2024/02/19 07:31:27;;;;;;;2.92;2.72;;;;;;;;;;4932165;29;20039;-70
2024/02/19 07:33:55;;;;;;;1.75;1.75;;;;;;;;;;4931408;29;20030;-71
2024/02/19 07:36:21;;;;;;;2.92;2.72;;;;;;;;;;4930782;29;20034;-70
2024/02/19 07:38:47;;;;;;;3.30;3.00;;;;;;;;;;4914708;29;20528;-71
2024/02/19 07:41:15;;;;;;;6.28;3.53;;;;;;;;;;4946345;28;20047;-72
2024/02/19 07:43:42;;;;;;;6.32;2.90;;;;;;;;;;4948150;29;20608;-72
2024/02/19 07:46:08;;;;;;;3.70;3.40;;;;;;;;;;4929529;29;20344;-73
2024/02/19 07:48:34;;;;;;;3.30;3.05;;;;;;;;;;4948500;29;20515;-71
2024/02/19 07:51:00;;;;;;;3.60;2.90;;;;;;;;;;4947102;29;20101;-72
2024/02/19 07:53:26;;;;;;;10.38;2.72;;;;;;;;;;4930836;29;20027;-72
2024/02/19 07:56:01;;;;;;;7.57;2.95;;;;;;;;;;4946352;28;20034;-72
2024/02/19 07:58:27;;;;;;;4.10;3.05;;;;;;;;;;4926277;29;20090;-74
2024/02/19 08:00:53;;;;;;;4.03;3.63;;;;;;;;;;4946650;28;20039;-72
2024/02/19 08:03:19;;;;;;;3.90;3.60;;;;;;;;;;4933552;29;20101;-72
2024/02/19 08:05:45;;;;;;;3.55;3.35;;;;;;;;;;4931570;29;20855;-71
2024/02/19 08:08:11;;;;;;;3.25;3.05;;;;;;;;;;4948556;29;20558;-71
2024/02/19 08:10:37;;;;;;;7.70;3.15;;;;;;;;;;4928596;29;20582;-70
2024/02/19 08:13:03;;;;;;;3.30;3.10;;;;;;;;;;4929195;29;20039;-71
2024/02/19 08:15:29;;;;;;;3.30;3.05;;;;;;;;;;4947351;28;20042;-73
2024/02/19 08:17:55;;;;;;;7.88;4.78;;;;;;;;;;4931498;29;20069;-71
2024/02/19 08:20:21;;;;;;;3.38;3.08;;;;;;;;;;4929238;29;20064;-71
2024/02/19 08:22:47;;;;;;;2.25;2.15;;;;;;;;;;4931406;29;20039;-71
2024/02/19 08:25:13;;;;;;;3.08;2.78;;;;;;;;;;4921347;29;20032;-70
2024/02/19 08:27:39;;;;;;;2.83;2.63;;;;;;;;;;4947744;29;20065;-70
2024/02/19 08:30:05;;;;;;;3.03;2.83;;;;;;;;;;4946560;29;20535;-71
2024/02/19 08:32:31;;;;;;;2.97;2.83;;;;;;;;;;4947285;29;20515;-70
2024/02/19 08:34:57;;;;;;;2.60;2.42;;;;;;;;;;4932294;29;20059;-71
2024/02/19 08:37:23;;;;;;;3.20;3.00;;;;;;;;;;4952683;28;20644;-70
2024/02/19 08:39:49;;;;;;;2.63;2.10;;;;;;;;;;4934128;28;20043;-69
2024/02/19 08:42:14;;;;;;;2.60;2.35;;;;;;;;;;4951271;29;20064;-70
2024/02/19 08:44:40;;;;;;;2.97;2.70;;;;;;;;;;4919702;29;20039;-71
2024/02/19 08:47:07;;;;;;;2.47;2.38;;;;;;;;;;4920959;29;20051;-70
2024/02/19 08:49:33;;;;;;;2.42;2.33;;;;;;;;;;4951545;29;20069;-68
2024/02/19 08:51:59;;;;;;;2.50;2.30;;;;;;;;;;4953932;29;20602;-70
2024/02/19 08:54:27;;;;;;;2.75;2.55;;;;;;;;;;4932798;29;20118;-69
2024/02/19 08:56:53;;;;;;;2.70;2.55;;;;;;;;;;4917602;29;20054;-70
2024/02/19 08:59:19;;;;;;;2.53;2.38;;;;;;;;;;4934930;28;20086;-68
2024/02/19 09:01:44;;;;;;;2.78;2.67;;;;;;;;;;4952463;29;20150;-68
2024/02/19 09:04:10;;;;;;;2.72;2.50;;;;;;;;;;4947447;28;20502;-68
2024/02/19 09:06:36;;;;;;;4.32;2.20;;;;;;;;;;4936735;29;20034;-69
2024/02/19 09:09:03;;;;;;;4.30;2.30;;;;;;;;;;4934365;29;20028;-69
2024/02/19 09:11:29;;;;;;;3.20;2.90;;;;;;;;;;4923948;29;20543;-69
2024/02/19 09:13:55;;;;;;;2.78;2.42;;;;;;;;;;4931580;29;20559;-69
2024/02/19 09:16:21;;;;;;;6.05;3.22;;;;;;;;;;4916076;29;20087;-68
2024/02/19 09:18:47;;;;;;;2.72;2.63;;;;;;;;;;4913838;29;20653;-68
2024/02/19 09:21:12;;;;;;;3.47;3.28;;;;;;;;;;4950032;29;20078;-68
2024/02/19 09:23:38;;;;;;;6.18;3.00;;;;;;;;;;4934226;29;20035;-67
2024/02/19 09:26:04;;;;;;;5.10;4.18;;;;;;;;;;4951384;28;20125;-71
2024/02/19 09:28:30;;;;;;;2.53;2.33;;;;;;;;;;4918671;29;20456;-68
2024/02/19 09:30:56;;;;;;;3.33;3.03;;;;;;;;;;4950125;28;20536;-67
2024/02/19 09:33:22;;;;;;;6.63;3.03;;;;;;;;;;4951602;29;20066;-70
2024/02/19 09:35:47;;;;;;;6.35;3.00;;;;;;;;;;4956173;28;20063;-68
2024/02/19 09:38:14;;;;;;;2.80;2.60;;;;;;;;;;4932428;29;20036;-71
2024/02/19 09:40:42;;;;;;;3.95;2.85;;;;;;;;;;4932527;28;20098;-70
2024/02/19 09:43:08;;;;;;;3.08;2.88;;;;;;;;;;4934144;29;20432;-68
2024/02/19 09:45:36;;;;;;;4.60;4.22;;;;;;;;;;4934373;28;20046;-68
2024/02/19 09:48:02;;;;;;;8.40;3.10;;;;;;;;;;4934303;29;20039;-69
2024/02/19 09:50:28;;;;;;;3.58;3.10;;;;;;;;;;4939683;28;20082;-69
2024/02/19 09:52:56;;;;;;;4.20;4.00;;;;;;;;;;4934024;29;20628;-70
2024/02/19 09:55:22;;;;;;;2.05;1.95;;;;;;;;;;4949862;28;20126;-69
2024/02/19 09:57:48;;;;;;;5.68;4.20;;;;;;;;;;4928283;29;20573;-69
2024/02/19 10:00:19;;;;;;;5.55;3.60;;;;;;;;;;4949616;28;20074;-70
2024/02/19 10:02:45;;;;;;;3.65;3.35;;;;;;;;;;4948472;29;20035;-68
2024/02/19 10:05:12;;;;;;;3.60;3.40;;;;;;;;;;4951945;28;20134;-69
2024/02/19 10:07:39;;;;;;;3.78;2.38;;;;;;;;;;4934004;29;20039;-68
2024/02/19 10:10:05;;;;;;;4.07;3.78;;;;;;;;;;4931754;28;20074;-68
2024/02/19 10:12:30;;;;;;;4.35;3.95;;;;;;;;;;4932247;29;20035;-68
2024/02/19 10:14:56;;;;;;;3.17;2.88;;;;;;;;;;4949639;29;20825;-68
2024/02/19 10:17:23;;;;;;;4.53;4.10;;;;;;;;;;4951281;29;20039;-69
2024/02/19 10:19:58;;;;;;;4.53;3.53;;;;;;;;;;4950500;29;20047;-68
2024/02/19 10:22:24;;;;;;;10.50;3.80;;;;;;;;;;4933586;29;20049;-68
2024/02/19 10:24:50;;;;;;;4.70;4.15;;;;;;;;;;4950343;29;20031;-67
2024/02/19 10:27:17;;;;;;;4.93;4.53;;;;;;;;;;4933995;29;20047;-68
2024/02/19 10:29:43;;;;;;;3.88;3.58;;;;;;;;;;4949608;28;20508;-68
2024/02/19 10:32:09;;;;;;;3.58;3.15;;;;;;;;;;4951072;29;20097;-68
2024/02/19 10:34:35;;;;;;;4.43;3.72;;;;;;;;;;4933563;29;20741;-70
2024/02/19 10:37:03;;;;;;;3.47;3.17;;;;;;;;;;4950826;29;20614;-69
2024/02/19 10:39:31;;;;;;;13.90;5.43;;;;;;;;;;4932762;29;20076;-68
2024/02/19 10:42:00;;;;;;;4.55;4.25;;;;;;;;;;4950554;29;20105;-67
2024/02/19 10:44:26;;;;;;;4.35;3.95;;;;;;;;;;4933593;29;20137;-68
2024/02/19 10:46:52;;;;;;;4.15;3.85;;;;;;;;;;4933762;29;20506;-68
2024/02/19 10:49:19;;;;;;;4.03;3.42;;;;;;;;;;4933370;29;20591;-67
2024/02/19 10:51:45;;;;;;;4.90;4.15;;;;;;;;;;4950896;29;20054;-67
2024/02/19 10:54:11;;;;;;;3.38;3.13;;;;;;;;;;4933909;29;20027;-68
2024/02/19 10:56:38;;;;;;;4.50;4.13;;;;;;;;;;4951961;29;20038;-68
2024/02/19 10:59:03;;;;;;;3.15;2.97;;;;;;;;;;4949581;28;20037;-67
2024/02/19 11:01:40;;;;;;;8.52;4.57;;;;;;;;;;4950690;29;20031;-68
2024/02/19 11:04:15;;;;;;;6.32;4.50;;;;;;;;;;4960484;28;20539;-69
2024/02/19 11:06:45;;;;;;;3.03;2.80;;;;;;;;;;4969493;28;20074;-68
2024/02/19 11:09:14;;;;;;;5.35;4.38;;;;;;;;;;4935417;28;20050;-68
2024/02/19 11:11:48;;;;;;;16.65;5.07;;;;;;;;;;4936147;28;20053;-68
2024/02/19 11:14:19;;;;;;;8.43;4.93;;;;;;;;;;4952317;28;20117;-67
2024/02/19 11:16:45;;;;;;;5.38;4.88;;;;;;;;;;4936553;28;20035;-66
2024/02/19 11:19:11;;;;;;;5.82;5.32;;;;;;;;;;4936801;28;20035;-68
2024/02/19 11:21:37;;;;;;;4.32;3.92;;;;;;;;;;4969540;28;20085;-67
2024/02/19 11:24:03;;;;;;;3.95;3.63;;;;;;;;;;4969093;28;20031;-67
2024/02/19 11:26:31;;;;;;;9.02;5.85;;;;;;;;;;4969494;28;20039;-67
2024/02/19 11:28:56;;;;;;;4.90;4.13;;;;;;;;;;4934933;28;20042;-68
2024/02/19 11:31:22;;;;;;;11.80;5.88;;;;;;;;;;4969311;28;20047;-69
2024/02/19 11:33:51;;;;;;;5.32;4.82;;;;;;;;;;4969022;28;20038;-68
2024/02/19 11:36:17;;;;;;;5.50;4.07;;;;;;;;;;4952587;28;20068;-68
2024/02/19 11:38:43;;;;;;;5.15;4.57;;;;;;;;;;4951781;28;20062;-67
2024/02/19 11:41:13;;;;;;;7.03;4.93;;;;;;;;;;4950580;28;20071;-68
2024/02/19 11:43:38;;;;;;;4.75;4.35;;;;;;;;;;4933100;29;20051;-68
2024/02/19 11:46:05;;;;;;;5.47;4.70;;;;;;;;;;4949765;29;20047;-68
2024/02/19 11:48:31;;;;;;;11.52;4.97;;;;;;;;;;4950092;29;20091;-68
2024/02/19 11:50:57;;;;;;;5.40;4.90;;;;;;;;;;4948943;29;20138;-68
2024/02/19 11:53:23;;;;;;;6.93;4.90;;;;;;;;;;4950216;29;20028;-68
2024/02/19 11:56:01;;;;;;;7.28;5.63;;;;;;;;;;4932852;29;20054;-68
2024/02/19 11:58:28;;;;;;;3.20;3.08;;;;;;;;;;4950333;28;20119;-68
2024/02/19 12:00:57;;;;;;;5.65;5.18;;;;;;;;;;4916208;29;20074;-68
2024/02/19 12:03:26;;;;;;;6.10;3.72;;;;;;;;;;4950081;29;20522;-67
2024/02/19 12:05:53;;;;;;;6.82;6.22;;;;;;;;;;4932704;29;20043;-68
2024/02/19 12:08:18;;;;;;;6.95;6.25;;;;;;;;;;4933068;29;20097;-67
2024/02/19 12:10:45;;;;;;;5.95;5.55;;;;;;;;;;4951975;28;20512;-68
2024/02/19 12:13:10;;;;;;;5.72;5.22;;;;;;;;;;4953837;29;20043;-68
2024/02/19 12:15:37;;;;;;;5.63;5.13;;;;;;;;;;4953732;29;20035;-68
2024/02/19 12:18:03;;;;;;;7.00;5.82;;;;;;;;;;4953392;29;20050;-68
2024/02/19 12:20:28;;;;;;;7.82;6.13;;;;;;;;;;4952562;29;20043;-68
2024/02/19 12:22:55;;;;;;;7.05;6.35;;;;;;;;;;4936177;29;20578;-68
2024/02/19 12:25:21;;;;;;;5.38;4.18;;;;;;;;;;4936358;29;20062;-69
2024/02/19 12:27:47;;;;;;;8.93;6.13;;;;;;;;;;4953152;29;20500;-68
2024/02/19 12:30:13;;;;;;;4.68;4.28;;;;;;;;;;4952243;29;20086;-69
2024/02/19 12:32:39;;;;;;;5.65;3.90;;;;;;;;;;4935850;29;20093;-68
2024/02/19 12:35:07;;;;;;;2.55;2.45;;;;;;;;;;4952956;29;20043;-68
2024/02/19 12:37:33;;;;;;;5.38;4.25;;;;;;;;;;4935718;29;20396;-68
2024/02/19 12:39:59;;;;;;;6.10;4.88;;;;;;;;;;4934119;29;20126;-68
2024/02/19 12:42:24;;;;;;;5.75;4.95;;;;;;;;;;4953105;29;20035;-68
2024/02/19 12:44:52;;;;;;;4.63;4.22;;;;;;;;;;4952669;29;20043;-69
2024/02/19 12:47:19;;;;;;;5.13;4.72;;;;;;;;;;4952769;29;20039;-68
2024/02/19 12:49:46;;;;;;;8.73;6.05;;;;;;;;;;4951791;29;20046;-68
2024/02/19 12:52:12;;;;;;;10.90;4.75;;;;;;;;;;4953094;29;20247;-68
2024/02/19 12:54:41;;;;;;;5.97;4.78;;;;;;;;;;4935794;29;20061;-69
2024/02/19 12:57:08;;;;;;;9.10;6.03;;;;;;;;;;4935613;29;20508;-69
2024/02/19 12:59:34;;;;;;;6.70;4.43;;;;;;;;;;4951573;28;20058;-67
2024/02/19 13:02:00;;;;;;;7.93;7.05;;;;;;;;;;4952496;29;20035;-68
2024/02/19 13:04:26;;;;;;;8.32;5.35;;;;;;;;;;4935750;29;20050;-68
2024/02/19 13:06:52;;;;;;;5.53;5.03;;;;;;;;;;4953107;29;20031;-68
2024/02/19 13:09:18;;;;;;;10.88;4.25;;;;;;;;;;4952375;29;20055;-68
2024/02/19 13:11:43;;;;;;;9.60;5.38;;;;;;;;;;4953547;29;20552;-68
2024/02/19 13:14:09;;;;;;;6.38;4.60;;;;;;;;;;4952528;29;20051;-67
2024/02/19 13:16:35;;;;;;;5.65;5.15;;;;;;;;;;4952608;29;20047;-67
2024/02/19 13:19:01;;;;;;;6.28;5.53;;;;;;;;;;4951350;29;20051;-67
2024/02/19 13:21:27;;;;;;;5.15;4.75;;;;;;;;;;4951732;28;20031;-69
2024/02/19 13:23:53;;;;;;;5.72;5.00;;;;;;;;;;4952089;29;20074;-68
2024/02/19 13:26:18;;;;;;;11.18;6.07;;;;;;;;;;4952479;29;20035;-68
2024/02/19 13:28:45;;;;;;;4.72;4.30;;;;;;;;;;4952150;29;20043;-68
2024/02/19 13:31:11;;;;;;;7.80;5.15;;;;;;;;;;4933915;29;20054;-68
2024/02/19 13:33:37;;;;;;;6.10;5.00;;;;;;;;;;4951976;29;20035;-68
2024/02/19 13:36:03;;;;;;;4.10;3.80;;;;;;;;;;4952119;29;20058;-68
2024/02/19 13:38:30;;;;;;;7.00;4.35;;;;;;;;;;4952280;29;20500;-68
2024/02/19 13:40:57;;;;;;;5.35;4.80;;;;;;;;;;4950868;29;20102;-68
2024/02/19 13:43:23;;;;;;;4.90;4.53;;;;;;;;;;4934835;29;20047;-68
2024/02/19 13:45:52;;;;;;;7.32;5.90;;;;;;;;;;4919332;29;20105;-68
2024/02/19 13:48:21;;;;;;;4.20;3.90;;;;;;;;;;4952055;29;20410;-68
2024/02/19 13:50:47;;;;;;;6.38;3.92;;;;;;;;;;4952592;29;20055;-68
2024/02/19 13:53:13;;;;;;;4.72;4.32;;;;;;;;;;4935047;29;20101;-67
2024/02/19 13:55:38;;;;;;;4.60;4.30;;;;;;;;;;4951949;29;20043;-68
2024/02/19 13:58:05;;;;;;;4.68;4.22;;;;;;;;;;4951648;28;20059;-68
2024/02/19 14:00:31;;;;;;;3.53;3.22;;;;;;;;;;4951025;29;20101;-68
2024/02/19 14:02:57;;;;;;;5.03;4.47;;;;;;;;;;4918922;29;20062;-68
2024/02/19 14:05:23;;;;;;;3.83;3.53;;;;;;;;;;4951631;29;20046;-68
2024/02/19 14:07:49;;;;;;;4.13;3.78;;;;;;;;;;4934406;29;20039;-68
2024/02/19 14:10:15;;;;;;;6.05;5.00;;;;;;;;;;4950087;29;20078;-68
2024/02/19 14:12:41;;;;;;;3.95;3.65;;;;;;;;;;4951547;29;20105;-67
2024/02/19 14:15:11;;;;;;;6.50;4.57;;;;;;;;;;4933798;29;20039;-68
2024/02/19 14:17:37;;;;;;;5.15;4.28;;;;;;;;;;4951499;29;20039;-68
2024/02/19 14:20:05;;;;;;;6.00;4.97;;;;;;;;;;4916897;29;20351;-67
2024/02/19 14:22:31;;;;;;;4.53;4.03;;;;;;;;;;4951397;29;20039;-67
2024/02/19 14:24:57;;;;;;;7.75;5.95;;;;;;;;;;4933641;29;20040;-68
2024/02/19 14:27:23;;;;;;;5.10;4.68;;;;;;;;;;4951074;29;20050;-68
2024/02/19 14:29:49;;;;;;;5.35;4.85;;;;;;;;;;4949908;29;20163;-67
2024/02/19 14:32:15;;;;;;;4.55;4.13;;;;;;;;;;4950867;28;20154;-68
2024/02/19 14:34:40;;;;;;;5.72;4.80;;;;;;;;;;4950948;29;20035;-68
2024/02/19 14:37:06;;;;;;;4.15;3.88;;;;;;;;;;4950927;29;20047;-68